Time,TemperatureF,DewpointF,PressureIn,WindDirection,WindDirectionDegrees,WindSpeedMPH,WindSpeedGustMPH,Humidity,HourlyPrecipIn,Conditions,Clouds,dailyrainin,SoftwareType,DateUTC
2013-05-06 00:00:00,58.7,43.5,30.05,NE,51,1.0,1.0,57,0.00,,,0.00,Wunderground v.1.15,2013-05-06 04:00:00,
2013-05-06 00:05:00,58.5,43.8,30.05,NNE,32,1.0,1.0,58,0.00,,,0.00,Wunderground v.1.15,2013-05-06 04:05:00,
2013-05-06 00:10:00,58.2,43.9,30.05,ENE,64,0.0,0.0,59,0.00,,,0.00,Wunderground v.1.15,2013-05-06 04:10:00,
2013-05-06 00:15:00,58.0,44.2,30.05,NE,50,1.0,1.0,60,0.00,,,0.00,Wunderground v.1.15,2013-05-06 04:15:00,
2013-05-06 00:20:00,57.9,44.5,30.05,NE,39,1.0,1.0,61,0.00,,,0.00,Wunderground v.1.15,2013-05-06 04:20:00,
2013-05-06 00:30:00,57.3,44.8,30.05,North,355,0.0,1.0,63,0.00,,,0.00,Wunderground v.1.15,2013-05-06 04:30:00,
2013-05-06 00:35:00,57.1,44.6,30.05,ENE,67,1.0,2.0,63,0.00,,,0.00,Wunderground v.1.15,2013-05-06 04:35:00,
2013-05-06 00:45:00,56.7,45.1,30.04,North,352,1.0,1.0,65,0.00,,,0.00,Wunderground v.1.15,2013-05-06 04:45:00,
2013-05-06 00:50:00,56.5,45.3,30.04,NE,41,1.0,1.0,66,0.00,,,0.00,Wunderground v.1.15,2013-05-06 04:50:00,
2013-05-06 01:00:00,56.2,45.4,30.04,NE,46,1.0,1.0,67,0.00,,,0.00,Wunderground v.1.15,2013-05-06 05:00:00,
2013-05-06 01:10:00,55.8,45.4,30.04,ENE,57,1.0,1.0,68,0.00,,,0.00,Wunderground v.1.15,2013-05-06 05:10:00,
2013-05-06 01:20:00,55.6,45.6,30.04,North,6,1.0,1.0,69,0.00,,,0.00,Wunderground v.1.15,2013-05-06 05:20:00,
2013-05-06 01:25:00,55.5,45.9,30.04,ENE,57,1.0,1.0,70,0.00,,,0.00,Wunderground v.1.15,2013-05-06 05:25:00,
2013-05-06 01:35:00,55.1,45.5,30.04,NNE,25,0.0,1.0,70,0.00,,,0.00,Wunderground v.1.15,2013-05-06 05:35:00,
2013-05-06 01:40:00,54.9,45.7,30.04,North,353,0.0,0.0,71,0.00,,,0.00,Wunderground v.1.15,2013-05-06 05:40:00,
2013-05-06 01:50:00,54.5,45.7,30.04,NNE,19,0.0,0.0,72,0.00,,,0.00,Wunderground v.1.15,2013-05-06 05:50:00,
2013-05-06 02:00:00,54.0,45.5,30.03,NW,323,0.0,0.0,73,0.00,,,0.00,Wunderground v.1.15,2013-05-06 06:00:00,
2013-05-06 02:05:00,53.7,45.2,30.03,NW,323,0.0,0.0,73,0.00,,,0.00,Wunderground v.1.15,2013-05-06 06:05:00,
2013-05-06 02:15:00,53.2,45.5,30.03,NW,323,0.0,0.0,75,0.00,,,0.00,Wunderground v.1.15,2013-05-06 06:15:00,
2013-05-06 02:20:00,52.9,45.2,30.03,NE,35,0.0,0.0,75,0.00,,,0.00,Wunderground v.1.15,2013-05-06 06:20:00,
2013-05-06 02:30:00,52.7,45.0,30.03,NE,39,0.0,1.0,75,0.00,,,0.00,Wunderground v.1.15,2013-05-06 06:30:00,
2013-05-06 02:40:00,52.6,44.2,30.03,NE,37,0.0,0.0,73,0.00,,,0.00,Wunderground v.1.15,2013-05-06 06:40:00,
2013-05-06 02:45:00,52.9,44.1,30.03,NE,52,0.0,0.0,72,0.00,,,0.00,Wunderground v.1.15,2013-05-06 06:45:00,
2013-05-06 02:55:00,53.2,43.3,30.03,NNW,346,0.0,0.0,69,0.00,,,0.00,Wunderground v.1.15,2013-05-06 06:55:00,
2013-05-06 03:00:00,53.4,43.1,30.03,NNW,340,1.0,1.0,68,0.00,,,0.00,Wunderground v.1.15,2013-05-06 07:00:00,
2013-05-06 03:10:00,52.9,43.4,30.03,NNW,340,0.0,0.0,70,0.00,,,0.00,Wunderground v.1.15,2013-05-06 07:10:00,
2013-05-06 03:20:00,52.0,43.6,30.03,NNW,340,0.0,0.0,73,0.00,,,0.00,Wunderground v.1.15,2013-05-06 07:20:00,
2013-05-06 03:25:00,51.4,43.4,30.03,NNW,340,0.0,0.0,74,0.00,,,0.00,Wunderground v.1.15,2013-05-06 07:25:00,
2013-05-06 03:35:00,50.9,43.6,30.03,NNW,338,0.0,0.0,76,0.00,,,0.00,Wunderground v.1.15,2013-05-06 07:35:00,
2013-05-06 03:45:00,50.7,43.4,30.03,NNW,338,0.0,0.0,76,0.00,,,0.00,Wunderground v.1.15,2013-05-06 07:45:00,
2013-05-06 03:50:00,50.5,43.2,30.03,NNW,338,0.0,0.0,76,0.00,,,0.00,Wunderground v.1.15,2013-05-06 07:50:00,
2013-05-06 04:00:00,50.4,43.1,30.03,NNW,338,0.0,0.0,76,0.00,,,0.00,Wunderground v.1.15,2013-05-06 08:00:00,
2013-05-06 04:10:00,50.1,42.8,30.03,NNW,338,0.0,0.0,76,0.00,,,0.00,Wunderground v.1.15,2013-05-06 08:10:00,
2013-05-06 04:15:00,50.0,42.7,30.03,NNW,338,0.0,0.0,76,0.00,,,0.00,Wunderground v.1.15,2013-05-06 08:15:00,
2013-05-06 04:25:00,49.5,42.6,30.03,NNW,338,0.0,0.0,77,0.00,,,0.00,Wunderground v.1.15,2013-05-06 08:25:00,
2013-05-06 04:30:00,49.2,42.6,30.03,North,360,0.0,1.0,78,0.00,,,0.00,Wunderground v.1.15,2013-05-06 08:30:00,
2013-05-06 04:40:00,49.2,42.0,30.03,North,360,0.0,0.0,76,0.00,,,0.00,Wunderground v.1.15,2013-05-06 08:40:00,
2013-05-06 04:50:00,49.7,42.1,30.03,NE,37,0.0,1.0,75,0.00,,,0.00,Wunderground v.1.15,2013-05-06 08:50:00,
2013-05-06 04:55:00,50.1,42.1,30.03,NE,35,0.0,1.0,74,0.00,,,0.00,Wunderground v.1.15,2013-05-06 08:55:00,
2013-05-06 05:00:00,49.8,41.8,30.03,NE,35,0.0,0.0,74,0.00,,,0.00,Wunderground v.1.15,2013-05-06 09:00:00,
2013-05-06 05:10:00,49.6,41.7,30.03,NE,35,0.0,0.0,74,0.00,,,0.00,Wunderground v.1.15,2013-05-06 09:10:00,
2013-05-06 05:20:00,50.4,41.7,30.03,ENE,75,0.0,1.0,72,0.00,,,0.00,Wunderground v.1.15,2013-05-06 09:20:00,
2013-05-06 05:30:00,50.2,41.5,30.03,NE,39,0.0,0.0,72,0.00,,,0.00,Wunderground v.1.15,2013-05-06 09:30:00,
2013-05-06 05:35:00,49.9,41.6,30.03,NNW,339,0.0,0.0,73,0.00,,,0.00,Wunderground v.1.15,2013-05-06 09:35:00,
2013-05-06 05:45:00,49.9,41.6,30.04,NNE,23,0.0,0.0,73,0.00,,,0.00,Wunderground v.1.15,2013-05-06 09:45:00,
2013-05-06 05:55:00,50.3,42.0,30.04,NNW,330,0.0,0.0,73,0.00,,,0.00,Wunderground v.1.15,2013-05-06 09:55:00,
2013-05-06 06:01:00,50.3,41.6,30.04,NNW,330,0.0,0.0,72,0.00,,,0.00,Wunderground v.1.15,2013-05-06 10:01:00,
2013-05-06 06:10:00,50.7,42.0,30.04,East,100,0.0,0.0,72,0.00,,,0.00,Wunderground v.1.15,2013-05-06 10:10:00,
2013-05-06 06:15:00,51.3,41.8,30.04,ENE,65,0.0,1.0,70,0.00,,,0.00,Wunderground v.1.15,2013-05-06 10:15:00,
2013-05-06 06:25:00,52.1,41.5,30.05,ENE,78,1.0,1.0,67,0.00,,,0.00,Wunderground v.1.15,2013-05-06 10:25:00,
2013-05-06 06:35:00,52.9,41.4,30.05,ENE,60,1.0,3.0,65,0.00,,,0.00,Wunderground v.1.15,2013-05-06 10:35:00,
2013-05-06 06:45:00,53.6,41.3,30.05,SE,124,2.0,2.0,63,0.00,,,0.00,Wunderground v.1.15,2013-05-06 10:45:00,
2013-05-06 06:55:00,54.0,41.7,30.05,East,80,1.0,2.0,63,0.00,,,0.00,Wunderground v.1.15,2013-05-06 10:55:00,
2013-05-06 07:00:00,54.3,41.6,30.05,ENE,61,1.0,2.0,62,0.00,,,0.00,Wunderground v.1.15,2013-05-06 11:00:00,
2013-05-06 07:10:00,54.8,42.0,30.06,ENE,67,2.0,2.0,62,0.00,,,0.00,Wunderground v.1.15,2013-05-06 11:10:00,
2013-05-06 07:20:00,54.9,42.5,30.06,NE,50,2.0,2.0,63,0.00,,,0.00,Wunderground v.1.15,2013-05-06 11:20:00,
2013-05-06 07:25:00,55.0,43.0,30.06,ENE,58,2.0,2.0,64,0.00,,,0.00,Wunderground v.1.15,2013-05-06 11:25:00,
2013-05-06 07:35:00,55.3,42.9,30.07,ENE,65,2.0,3.0,63,0.00,,,0.00,Wunderground v.1.15,2013-05-06 11:35:00,
2013-05-06 07:40:00,55.5,42.7,30.07,East,89,1.0,1.0,62,0.00,,,0.00,Wunderground v.1.15,2013-05-06 11:40:00,
2013-05-06 07:50:00,55.8,42.5,30.07,ENE,77,2.0,2.0,61,0.00,,,0.00,Wunderground v.1.15,2013-05-06 11:50:00,
2013-05-06 07:55:00,55.9,42.6,30.07,ENE,69,1.0,2.0,61,0.00,,,0.00,Wunderground v.1.15,2013-05-06 11:55:00,
2013-05-06 08:00:00,56.1,42.8,30.07,ESE,103,1.0,3.0,61,0.00,,,0.00,Wunderground v.1.15,2013-05-06 12:00:00,
2013-05-06 08:05:00,56.3,43.0,30.07,ENE,77,1.0,3.0,61,0.00,,,0.00,Wunderground v.1.15,2013-05-06 12:05:00,
2013-05-06 08:15:00,56.8,43.1,30.08,ESE,113,2.0,5.0,60,0.00,,,0.00,Wunderground v.1.15,2013-05-06 12:15:00,
2013-05-06 08:20:00,57.0,42.8,30.08,NE,56,2.0,2.0,59,0.00,,,0.00,Wunderground v.1.15,2013-05-06 12:20:00,
2013-05-06 08:30:00,57.5,42.8,30.08,East,82,3.0,4.0,58,0.00,,,0.00,Wunderground v.1.15,2013-05-06 12:30:00,
2013-05-06 08:40:00,57.7,42.1,30.08,SE,144,2.0,2.0,56,0.00,,,0.00,Wunderground v.1.15,2013-05-06 12:40:00,
2013-05-06 08:45:00,57.8,42.2,30.08,ENE,63,3.0,3.0,56,0.00,,,0.00,Wunderground v.1.15,2013-05-06 12:45:00,
2013-05-06 08:55:00,58.2,42.6,30.08,SSE,155,2.0,2.0,56,0.00,,,0.00,Wunderground v.1.15,2013-05-06 12:55:00,
2013-05-06 09:01:00,58.2,42.6,30.08,ENE,66,3.0,3.0,56,0.00,,,0.00,Wunderground v.1.15,2013-05-06 13:01:00,
2013-05-06 09:10:00,58.4,42.3,30.08,ENE,58,3.0,3.0,55,0.00,,,0.00,Wunderground v.1.15,2013-05-06 13:10:00,
2013-05-06 09:15:00,58.5,41.9,30.08,East,83,4.0,4.0,54,0.00,,,0.00,Wunderground v.1.15,2013-05-06 13:15:00,
2013-05-06 09:25:00,58.8,42.7,30.08,ENE,70,3.0,3.0,55,0.00,,,0.00,Wunderground v.1.15,2013-05-06 13:25:00,
2013-05-06 09:35:00,59.2,42.1,30.08,ENE,65,3.0,3.0,53,0.00,,,0.00,Wunderground v.1.15,2013-05-06 13:35:00,
2013-05-06 09:45:00,59.6,42.4,30.08,NE,40,2.0,2.0,53,0.00,,,0.00,Wunderground v.1.15,2013-05-06 13:45:00,
2013-05-06 09:50:00,59.5,41.3,30.08,ENE,60,3.0,4.0,51,0.00,,,0.00,Wunderground v.1.15,2013-05-06 13:50:00,
2013-05-06 10:00:00,60.1,41.4,30.09,ESE,113,2.0,5.0,50,0.00,,,0.00,Wunderground v.1.15,2013-05-06 14:00:00,
2013-05-06 10:10:00,60.3,42.6,30.09,East,83,3.0,3.0,52,0.00,,,0.00,Wunderground v.1.15,2013-05-06 14:10:00,
2013-05-06 10:20:00,60.2,43.0,30.09,ENE,62,4.0,4.0,53,0.00,,,0.00,Wunderground v.1.15,2013-05-06 14:20:00,
2013-05-06 10:30:00,60.1,41.9,30.09,ENE,68,4.0,4.0,51,0.00,,,0.00,Wunderground v.1.15,2013-05-06 14:30:00,
2013-05-06 10:35:00,60.2,42.0,30.09,East,94,4.0,5.0,51,0.00,,,0.00,Wunderground v.1.15,2013-05-06 14:35:00,
2013-05-06 10:45:00,60.3,42.1,30.09,ENE,61,4.0,4.0,51,0.00,,,0.00,Wunderground v.1.15,2013-05-06 14:45:00,
2013-05-06 10:50:00,60.5,41.8,30.09,NNW,340,4.0,4.0,50,0.00,,,0.00,Wunderground v.1.15,2013-05-06 14:50:00,
2013-05-06 11:01:00,61.1,41.8,30.09,ESE,120,4.0,4.0,49,0.00,,,0.00,Wunderground v.1.15,2013-05-06 15:01:00,
2013-05-06 11:10:00,62.3,41.8,30.09,SSE,158,3.0,4.0,47,0.00,,,0.00,Wunderground v.1.15,2013-05-06 15:10:00,
2013-05-06 11:15:00,62.2,42.3,30.09,ESE,112,3.0,13.0,48,0.00,,,0.00,Wunderground v.1.15,2013-05-06 15:15:00,
2013-05-06 11:25:00,60.9,42.1,30.09,SSE,149,5.0,9.0,50,0.00,,,0.00,Wunderground v.1.15,2013-05-06 15:25:00,
2013-05-06 11:30:00,61.2,41.9,30.09,ESE,123,4.0,4.0,49,0.00,,,0.00,Wunderground v.1.15,2013-05-06 15:30:00,
2013-05-06 11:40:00,61.1,41.8,30.09,NE,46,3.0,3.0,49,0.00,,,0.00,Wunderground v.1.15,2013-05-06 15:40:00,
2013-05-06 11:50:00,60.9,41.6,30.09,East,80,4.0,4.0,49,0.00,,,0.00,Wunderground v.1.15,2013-05-06 15:50:00,
2013-05-06 11:55:00,60.9,43.1,30.09,ENE,65,4.0,4.0,52,0.00,,,0.00,Wunderground v.1.15,2013-05-06 15:55:00,
2013-05-06 12:00:00,60.9,42.1,30.09,NE,56,4.0,4.0,50,0.00,,,0.00,Wunderground v.1.15,2013-05-06 16:00:00,
2013-05-06 12:10:00,61.3,43.0,30.08,ENE,64,4.0,6.0,51,0.00,,,0.00,Wunderground v.1.15,2013-05-06 16:10:00,
2013-05-06 12:20:00,61.7,43.4,30.08,East,82,4.0,7.0,51,0.00,,,0.00,Wunderground v.1.15,2013-05-06 16:20:00,
2013-05-06 12:30:00,62.3,43.4,30.08,NE,56,3.0,5.0,50,0.00,,,0.00,Wunderground v.1.15,2013-05-06 16:30:00,
2013-05-06 12:35:00,62.6,43.2,30.08,SE,146,4.0,5.0,49,0.00,,,0.00,Wunderground v.1.15,2013-05-06 16:35:00,
2013-05-06 12:45:00,62.7,44.3,30.07,East,88,4.0,4.0,51,0.00,,,0.00,Wunderground v.1.15,2013-05-06 16:45:00,
2013-05-06 12:50:00,63.2,44.8,30.07,ENE,75,3.0,5.0,51,0.00,,,0.00,Wunderground v.1.15,2013-05-06 16:50:00,
2013-05-06 13:01:00,63.3,44.9,30.07,ESE,122,3.0,3.0,51,0.00,,,0.00,Wunderground v.1.15,2013-05-06 17:01:00,
2013-05-06 13:10:00,62.6,44.2,30.07,NE,46,3.0,3.0,51,0.00,,,0.00,Wunderground v.1.15,2013-05-06 17:10:00,
2013-05-06 13:15:00,63.2,45.8,30.06,ENE,70,3.0,3.0,53,0.00,,,0.00,Wunderground v.1.15,2013-05-06 17:15:00,
2013-05-06 13:25:00,62.4,44.5,30.07,ENE,66,4.0,6.0,52,0.00,,,0.00,Wunderground v.1.15,2013-05-06 17:25:00,
2013-05-06 13:30:00,62.6,45.2,30.06,ENE,71,4.0,4.0,53,0.00,,,0.00,Wunderground v.1.15,2013-05-06 17:30:00,
2013-05-06 13:40:00,63.7,47.2,30.06,East,83,2.0,3.0,55,0.00,,,0.00,Wunderground v.1.15,2013-05-06 17:40:00,
2013-05-06 13:50:00,63.0,47.1,30.06,East,85,3.0,3.0,56,0.00,,,0.00,Wunderground v.1.15,2013-05-06 17:50:00,
2013-05-06 13:55:00,62.2,43.8,30.06,East,89,4.0,6.0,51,0.00,,,0.00,Wunderground v.1.15,2013-05-06 17:55:00,
2013-05-06 14:01:00,62.1,44.8,30.06,NE,46,5.0,5.0,53,0.00,,,0.00,Wunderground v.1.15,2013-05-06 18:01:00,
2013-05-06 14:10:00,62.3,46.4,30.06,NE,51,4.0,4.0,56,0.00,,,0.00,Wunderground v.1.15,2013-05-06 18:10:00,
2013-05-06 14:15:00,62.4,45.5,30.06,East,84,4.0,4.0,54,0.00,,,0.00,Wunderground v.1.15,2013-05-06 18:15:00,
2013-05-06 14:25:00,62.8,46.9,30.06,East,84,4.0,4.0,56,0.00,,,0.00,Wunderground v.1.15,2013-05-06 18:25:00,
2013-05-06 14:35:00,62.6,46.7,30.06,ESE,103,4.0,4.0,56,0.00,,,0.00,Wunderground v.1.15,2013-05-06 18:35:00,
2013-05-06 14:40:00,62.6,46.7,30.06,ESE,110,4.0,4.0,56,0.00,,,0.00,Wunderground v.1.15,2013-05-06 18:40:00,
2013-05-06 14:50:00,62.9,47.0,30.06,East,95,4.0,4.0,56,0.00,,,0.00,Wunderground v.1.15,2013-05-06 18:50:00,
2013-05-06 15:00:00,63.0,46.1,30.05,ENE,76,3.0,3.0,54,0.00,,,0.00,Wunderground v.1.15,2013-05-06 19:00:00,
2013-05-06 15:05:00,63.5,46.6,30.05,East,80,3.0,3.0,54,0.00,,,0.00,Wunderground v.1.15,2013-05-06 19:05:00,
2013-05-06 15:15:00,62.5,46.6,30.05,NE,56,5.0,5.0,56,0.00,,,0.00,Wunderground v.1.15,2013-05-06 19:15:00,
2013-05-06 15:25:00,61.7,45.8,30.05,ENE,70,5.0,10.0,56,0.00,,,0.00,Wunderground v.1.15,2013-05-06 19:25:00,
2013-05-06 15:30:00,61.9,46.0,30.05,ESE,110,5.0,5.0,56,0.00,,,0.00,Wunderground v.1.15,2013-05-06 19:30:00,
2013-05-06 15:40:00,62.0,46.6,30.04,ENE,75,5.0,5.0,57,0.00,,,0.00,Wunderground v.1.15,2013-05-06 19:40:00,
2013-05-06 15:50:00,62.4,46.0,30.04,NE,37,5.0,5.0,55,0.00,,,0.00,Wunderground v.1.15,2013-05-06 19:50:00,
2013-05-06 15:55:00,62.4,46.5,30.04,ENE,75,5.0,5.0,56,0.00,,,0.00,Wunderground v.1.15,2013-05-06 19:55:00,
2013-05-06 16:01:00,62.4,46.5,30.04,NE,50,4.0,4.0,56,0.00,,,0.00,Wunderground v.1.15,2013-05-06 20:01:00,
2013-05-06 16:10:00,62.2,45.8,30.03,ENE,78,5.0,5.0,55,0.00,,,0.00,Wunderground v.1.15,2013-05-06 20:10:00,
2013-05-06 16:20:00,62.2,46.8,30.03,SE,146,5.0,6.0,57,0.00,,,0.00,Wunderground v.1.15,2013-05-06 20:20:00,
2013-05-06 16:25:00,62.5,46.6,30.03,East,96,4.0,6.0,56,0.00,,,0.00,Wunderground v.1.15,2013-05-06 20:25:00,
2013-05-06 16:35:00,62.9,46.5,30.03,ENE,59,4.0,4.0,55,0.00,,,0.00,Wunderground v.1.15,2013-05-06 20:35:00,
2013-05-06 16:45:00,63.2,46.8,30.02,SE,132,3.0,5.0,55,0.00,,,0.00,Wunderground v.1.15,2013-05-06 20:45:00,
2013-05-06 16:50:00,63.7,47.2,30.02,ESE,110,3.0,4.0,55,0.00,,,0.00,Wunderground v.1.15,2013-05-06 20:50:00,
2013-05-06 17:01:00,63.7,46.7,30.02,ESE,114,3.0,3.0,54,0.00,,,0.00,Wunderground v.1.15,2013-05-06 21:01:00,
2013-05-06 17:10:00,63.7,48.2,30.02,ESE,120,3.0,3.0,57,0.00,,,0.00,Wunderground v.1.15,2013-05-06 21:10:00,
2013-05-06 17:20:00,64.0,47.5,30.02,East,94,3.0,4.0,55,0.00,,,0.00,Wunderground v.1.15,2013-05-06 21:20:00,
2013-05-06 17:25:00,64.0,47.0,30.02,ESE,116,3.0,4.0,54,0.00,,,0.00,Wunderground v.1.15,2013-05-06 21:25:00,
2013-05-06 17:35:00,63.5,47.0,30.02,NE,54,4.0,4.0,55,0.00,,,0.00,Wunderground v.1.15,2013-05-06 21:35:00,
2013-05-06 17:45:00,63.5,47.0,30.02,ESE,120,3.0,5.0,55,0.00,,,0.00,Wunderground v.1.15,2013-05-06 21:45:00,
2013-05-06 17:50:00,64.1,47.1,30.02,ESE,122,2.0,2.0,54,0.00,,,0.00,Wunderground v.1.15,2013-05-06 21:50:00,
2013-05-06 18:01:00,64.8,46.2,30.01,ENE,66,3.0,6.0,51,0.00,,,0.00,Wunderground v.1.15,2013-05-06 22:01:00,
2013-05-06 18:10:00,64.6,46.1,30.01,East,82,4.0,4.0,51,0.00,,,0.00,Wunderground v.1.15,2013-05-06 22:10:00,
2013-05-06 18:15:00,64.8,46.8,30.01,ENE,76,4.0,4.0,52,0.00,,,0.00,Wunderground v.1.15,2013-05-06 22:15:00,
2013-05-06 18:25:00,65.3,47.2,30.01,East,84,3.0,4.0,52,0.00,,,0.00,Wunderground v.1.15,2013-05-06 22:25:00,
2013-05-06 18:30:00,65.5,48.4,30.01,East,99,3.0,3.0,54,0.00,,,0.00,Wunderground v.1.15,2013-05-06 22:30:00,
2013-05-06 18:40:00,65.4,48.3,30.01,East,82,2.0,2.0,54,0.00,,,0.00,Wunderground v.1.15,2013-05-06 22:40:00,
2013-05-06 18:50:00,64.6,48.1,30.01,ESE,113,2.0,2.0,55,0.00,,,0.00,Wunderground v.1.15,2013-05-06 22:50:00,
2013-05-06 18:55:00,63.4,47.9,30.02,ENE,73,2.0,2.0,57,0.00,,,0.00,Wunderground v.1.15,2013-05-06 22:55:00,
2013-05-06 19:01:00,63.0,48.9,30.01,SW,224,1.0,1.0,60,0.00,,,0.00,Wunderground v.1.15,2013-05-06 23:01:00,
2013-05-06 19:10:00,63.0,48.4,30.02,ENE,74,0.0,2.0,59,0.00,,,0.00,Wunderground v.1.15,2013-05-06 23:10:00,
2013-05-06 19:20:00,62.9,48.3,30.01,WSW,251,2.0,2.0,59,0.00,,,0.00,Wunderground v.1.15,2013-05-06 23:20:00,
2013-05-06 19:30:00,63.3,47.3,30.01,ENE,73,2.0,5.0,56,0.00,,,0.00,Wunderground v.1.15,2013-05-06 23:30:00,
2013-05-06 19:35:00,62.8,47.3,30.01,ENE,72,3.0,5.0,57,0.00,,,0.00,Wunderground v.1.15,2013-05-06 23:35:00,
2013-05-06 19:45:00,62.6,48.1,30.01,East,97,3.0,4.0,59,0.00,,,0.00,Wunderground v.1.15,2013-05-06 23:45:00,
2013-05-06 19:50:00,62.8,47.3,30.01,ENE,72,2.0,4.0,57,0.00,,,0.00,Wunderground v.1.15,2013-05-06 23:50:00,
2013-05-06 20:01:00,62.9,47.4,30.02,East,96,3.0,3.0,57,0.00,,,0.00,Wunderground v.1.15,2013-05-07 00:01:00,
2013-05-06 20:10:00,62.6,47.6,30.02,ENE,64,1.0,1.0,58,0.00,,,0.00,Wunderground v.1.15,2013-05-07 00:10:00,
2013-05-06 20:15:00,62.1,47.6,30.02,ENE,74,1.0,3.0,59,0.00,,,0.00,Wunderground v.1.15,2013-05-07 00:15:00,
2013-05-06 20:25:00,61.5,47.9,30.02,East,94,2.0,2.0,61,0.00,,,0.00,Wunderground v.1.15,2013-05-07 00:25:00,
2013-05-06 20:30:00,61.3,47.7,30.02,East,99,1.0,1.0,61,0.00,,,0.00,Wunderground v.1.15,2013-05-07 00:30:00,
2013-05-06 20:40:00,61.0,47.4,30.02,East,82,2.0,2.0,61,0.00,,,0.00,Wunderground v.1.15,2013-05-07 00:40:00,
2013-05-06 20:50:00,60.5,47.4,30.03,NE,51,2.0,2.0,62,0.00,,,0.00,Wunderground v.1.15,2013-05-07 00:50:00,
2013-05-06 20:55:00,60.2,47.1,30.03,East,91,2.0,2.0,62,0.00,,,0.00,Wunderground v.1.15,2013-05-07 00:55:00,
2013-05-06 21:01:00,59.9,47.3,30.03,ENE,75,2.0,2.0,63,0.00,,,0.00,Wunderground v.1.15,2013-05-07 01:01:00,
2013-05-06 21:10:00,59.5,47.3,30.03,East,82,2.0,2.0,64,0.00,,,0.00,Wunderground v.1.15,2013-05-07 01:10:00,
2013-05-06 21:21:00,59.1,46.9,30.04,ENE,58,2.0,2.0,64,0.00,,,0.00,Wunderground v.1.15,2013-05-07 01:21:00,
2013-05-06 21:30:00,58.7,46.5,30.04,ENE,75,2.0,2.0,64,0.00,,,0.00,Wunderground v.1.15,2013-05-07 01:30:00,
2013-05-06 21:35:00,58.5,46.4,30.04,East,99,2.0,2.0,64,0.00,,,0.00,Wunderground v.1.15,2013-05-07 01:35:00,
2013-05-06 21:45:00,58.2,46.9,30.04,East,85,1.0,1.0,66,0.00,,,0.00,Wunderground v.1.15,2013-05-07 01:45:00,
2013-05-06 21:50:00,58.0,46.7,30.04,East,88,1.0,1.0,66,0.00,,,0.00,Wunderground v.1.15,2013-05-07 01:50:00,
2013-05-06 22:01:00,57.6,46.7,30.04,ENE,68,2.0,3.0,67,0.00,,,0.00,Wunderground v.1.15,2013-05-07 02:01:00,
2013-05-06 22:10:00,57.3,45.6,30.05,ENE,67,2.0,2.0,65,0.00,,,0.00,Wunderground v.1.15,2013-05-07 02:10:00,
2013-05-06 22:15:00,57.2,44.7,30.05,ENE,73,1.0,2.0,63,0.00,,,0.00,Wunderground v.1.15,2013-05-07 02:15:00,
2013-05-06 22:25:00,57.5,43.7,30.05,NE,53,2.0,2.0,60,0.00,,,0.00,Wunderground v.1.15,2013-05-07 02:25:00,
2013-05-06 22:30:00,57.4,43.6,30.05,East,80,3.0,4.0,60,0.00,,,0.00,Wunderground v.1.15,2013-05-07 02:30:00,
2013-05-06 22:40:00,57.0,44.1,30.06,East,86,2.0,2.0,62,0.00,,,0.00,Wunderground v.1.15,2013-05-07 02:40:00,
2013-05-06 22:45:00,56.7,43.8,30.05,NE,56,2.0,2.0,62,0.00,,,0.00,Wunderground v.1.15,2013-05-07 02:45:00,
2013-05-06 22:55:00,56.3,43.9,30.06,ENE,78,1.0,2.0,63,0.00,,,0.00,Wunderground v.1.15,2013-05-07 02:55:00,
2013-05-06 23:01:00,56.2,44.2,30.06,East,84,1.0,1.0,64,0.00,,,0.00,Wunderground v.1.15,2013-05-07 03:01:00,
2013-05-06 23:10:00,56.1,44.1,30.05,ESE,110,2.0,2.0,64,0.00,,,0.00,Wunderground v.1.15,2013-05-07 03:10:00,
2013-05-06 23:20:00,56.2,42.9,30.05,East,92,1.0,2.0,61,0.00,,,0.00,Wunderground v.1.15,2013-05-07 03:20:00,
2013-05-06 23:25:00,56.2,42.5,30.05,East,89,1.0,2.0,60,0.00,,,0.00,Wunderground v.1.15,2013-05-07 03:25:00,
2013-05-06 23:36:00,55.9,42.2,30.05,East,89,0.0,1.0,60,0.00,,,0.00,Wunderground v.1.15,2013-05-07 03:36:00,
2013-05-06 23:45:00,55.4,42.6,30.04,East,84,0.0,0.0,62,0.00,,,0.00,Wunderground v.1.15,2013-05-07 03:45:00,
2013-05-06 23:50:00,55.2,42.8,30.04,East,84,0.0,0.0,63,0.00,,,0.00,Wunderground v.1.15,2013-05-07 03:50:00,